createdAt,value
2019-03-31T00:00:01.552Z,46.15
2019-03-31T00:02:30.815Z,51.35
2019-03-31T00:05:00.114Z,52.67
2019-03-31T00:07:29.380Z,47.35
2019-03-31T00:09:58.552Z,46.53
2019-03-31T00:12:27.894Z,42.95
2019-03-31T00:14:57.202Z,45.23
2019-03-31T00:17:26.446Z,45.90
2019-03-31T00:19:55.623Z,67.92
2019-03-31T00:22:24.876Z,46.35
2019-03-31T00:24:54.114Z,45.70
2019-03-31T00:27:23.368Z,43.52
2019-03-31T00:29:53.317Z,43.70
2019-03-31T00:32:22.963Z,42.27
2019-03-31T00:34:52.145Z,42.27
2019-03-31T00:37:21.441Z,40.75
2019-03-31T00:39:50.668Z,40.80
2019-03-31T00:42:19.978Z,37.00
2019-03-31T00:44:49.253Z,42.40
2019-03-31T00:47:18.505Z,40.12
2019-03-31T00:49:47.781Z,38.92
2019-03-31T00:52:16.957Z,41.37
2019-03-31T00:54:46.297Z,38.50
2019-03-31T00:57:15.545Z,39.08
2019-03-31T00:59:44.787Z,41.88
2019-03-31T01:02:16.435Z,40.75
2019-03-31T01:04:45.681Z,40.85
2019-03-31T01:07:15.501Z,41.40
2019-03-31T01:09:44.751Z,39.73
2019-03-31T01:12:14.105Z,40.95
2019-03-31T01:14:43.420Z,41.13
2019-03-31T01:17:12.712Z,39.90
2019-03-31T01:19:41.970Z,43.40
2019-03-31T01:22:11.149Z,44.63
2019-03-31T01:24:40.509Z,45.25
2019-03-31T01:27:10.559Z,44.38
2019-03-31T01:29:39.791Z,45.30
2019-03-31T01:32:09.132Z,45.40
2019-03-31T01:34:38.316Z,44.90
2019-03-31T01:37:07.544Z,43.00
2019-03-31T01:39:36.792Z,44.35
2019-03-31T01:42:06.044Z,42.55
2019-03-31T01:44:35.239Z,41.25
2019-03-31T01:47:05.614Z,41.35
2019-03-31T01:49:34.787Z,41.90
2019-03-31T01:52:04.125Z,39.67
2019-03-31T01:54:33.356Z,41.80
2019-03-31T01:57:02.528Z,41.08
2019-03-31T01:59:31.954Z,39.88
2019-03-31T02:02:04.541Z,39.83
2019-03-31T02:04:32.156Z,41.10
2019-03-31T02:07:01.413Z,40.85
2019-03-31T02:09:30.650Z,40.48
2019-03-31T02:11:59.904Z,41.55
2019-03-31T02:14:29.142Z,41.33
2019-03-31T02:16:58.449Z,42.23
2019-03-31T02:19:27.624Z,40.80
2019-03-31T02:21:56.848Z,41.88
2019-03-31T02:24:26.140Z,40.88
2019-03-31T02:26:55.318Z,42.85
2019-03-31T02:29:24.495Z,40.92
2019-03-31T02:31:53.769Z,41.45
2019-03-31T02:34:23.008Z,42.25
2019-03-31T02:36:52.212Z,39.05
2019-03-31T02:39:21.455Z,40.95
2019-03-31T02:41:50.755Z,40.60
2019-03-31T02:44:19.993Z,42.33
2019-03-31T02:46:49.240Z,42.67
2019-03-31T02:49:18.470Z,44.10
2019-03-31T02:51:47.637Z,41.73
2019-03-31T02:54:16.868Z,41.50
2019-03-31T02:56:46.042Z,42.10
2019-03-31T02:59:15.956Z,41.42
2019-03-31T03:01:45.531Z,42.75
2019-03-31T03:04:14.707Z,44.85
2019-03-31T03:06:43.890Z,42.70
2019-03-31T03:09:13.187Z,42.35
2019-03-31T03:11:42.367Z,44.55
2019-03-31T03:14:11.539Z,42.48
2019-03-31T03:16:40.869Z,42.85
2019-03-31T03:19:10.036Z,41.18
2019-03-31T03:21:39.217Z,43.70
2019-03-31T03:24:08.462Z,44.88
2019-03-31T03:26:37.716Z,42.20
2019-03-31T03:29:06.963Z,43.52
2019-03-31T03:31:36.575Z,43.55
2019-03-31T03:34:05.828Z,46.63
2019-03-31T03:36:35.073Z,44.70
2019-03-31T03:39:06.119Z,44.63
2019-03-31T03:41:35.298Z,47.35
2019-03-31T03:44:04.540Z,47.45
2019-03-31T03:46:33.758Z,47.23
2019-03-31T03:49:03.078Z,46.08
2019-03-31T03:51:32.324Z,46.88
2019-03-31T03:54:01.600Z,44.67
2019-03-31T03:56:30.785Z,42.15
2019-03-31T03:59:00.012Z,42.90
2019-03-31T04:01:30.838Z,42.08
2019-03-31T04:04:00.008Z,44.80
2019-03-31T04:06:29.279Z,41.35
2019-03-31T04:08:58.466Z,42.43
2019-03-31T04:11:27.698Z,43.45
2019-03-31T04:13:56.954Z,43.83
2019-03-31T04:16:26.122Z,44.03
2019-03-31T04:18:55.431Z,42.60
2019-03-31T04:21:24.681Z,43.15
2019-03-31T04:23:53.856Z,42.45
2019-03-31T04:26:23.086Z,43.50
2019-03-31T04:28:52.338Z,43.25
2019-03-31T04:31:21.571Z,45.52
2019-03-31T04:33:52.802Z,42.08
2019-03-31T04:36:21.880Z,42.35
2019-03-31T04:38:51.092Z,43.65
2019-03-31T04:41:20.296Z,42.25
2019-03-31T04:43:49.498Z,42.10
2019-03-31T04:46:18.741Z,42.03
2019-03-31T04:48:47.996Z,44.98
2019-03-31T04:51:17.183Z,42.27
2019-03-31T04:53:46.487Z,41.23
2019-03-31T04:56:15.661Z,44.15
2019-03-31T04:58:44.882Z,46.18
2019-03-31T05:01:14.227Z,46.02
2019-03-31T05:03:43.458Z,46.40
2019-03-31T05:06:12.784Z,46.33
2019-03-31T05:08:41.994Z,47.13
2019-03-31T05:11:11.384Z,46.70
2019-03-31T05:13:40.640Z,47.13
2019-03-31T05:16:09.879Z,45.80
2019-03-31T05:18:39.657Z,47.00
2019-03-31T05:21:08.919Z,47.17
2019-03-31T05:23:38.240Z,47.95
2019-03-31T05:26:07.605Z,48.60
2019-03-31T05:28:36.918Z,48.73
2019-03-31T05:31:06.144Z,49.42
2019-03-31T05:33:35.607Z,49.15
2019-03-31T05:36:04.945Z,49.88
2019-03-31T05:38:34.195Z,48.85
2019-03-31T05:41:03.639Z,49.70
2019-03-31T05:43:33.033Z,50.23
2019-03-31T05:46:02.276Z,50.43
2019-03-31T05:48:31.599Z,50.92
2019-03-31T05:51:00.872Z,51.02
2019-03-31T05:53:30.241Z,51.13
2019-03-31T05:55:59.581Z,52.43
2019-03-31T05:58:28.757Z,51.68
2019-03-31T06:00:58.231Z,51.90
2019-03-31T06:03:28.025Z,53.02
2019-03-31T06:05:57.339Z,55.30
2019-03-31T06:08:26.739Z,53.60
2019-03-31T06:10:55.987Z,51.92
2019-03-31T06:13:25.385Z,51.88
2019-03-31T06:15:54.692Z,50.92
2019-03-31T06:18:24.155Z,53.17
2019-03-31T06:20:53.430Z,52.83
2019-03-31T06:23:22.731Z,52.35
2019-03-31T06:25:52.045Z,50.90
2019-03-31T06:28:21.383Z,50.67
2019-03-31T06:30:50.753Z,50.43
2019-03-31T06:33:20.094Z,51.75
2019-03-31T06:35:49.414Z,50.60
2019-03-31T06:38:18.796Z,50.17
2019-03-31T06:40:49.690Z,47.78
2019-03-31T06:43:19.013Z,47.83
2019-03-31T06:45:48.416Z,48.85
2019-03-31T06:48:17.772Z,49.05
2019-03-31T06:50:47.175Z,53.50
2019-03-31T06:53:16.592Z,47.33
2019-03-31T06:55:45.915Z,46.23
2019-03-31T06:58:15.355Z,46.08
2019-03-31T07:00:44.614Z,47.13
2019-03-31T07:03:13.979Z,45.83
2019-03-31T07:05:43.328Z,43.02
2019-03-31T07:08:12.695Z,42.20
2019-03-31T07:10:42.017Z,44.50
2019-03-31T07:13:11.358Z,43.65
2019-03-31T07:15:40.737Z,41.40
2019-03-31T07:18:10.000Z,41.50
2019-03-31T07:20:39.216Z,41.55
2019-03-31T07:23:08.559Z,39.80
2019-03-31T07:25:37.905Z,39.78
2019-03-31T07:28:07.139Z,38.55
2019-03-31T07:30:36.459Z,39.67
2019-03-31T07:33:05.841Z,37.38
2019-03-31T07:35:35.110Z,37.70
2019-03-31T07:38:04.499Z,38.58
2019-03-31T07:40:34.110Z,37.85
2019-03-31T07:43:03.577Z,37.93
2019-03-31T07:45:32.937Z,35.63
2019-03-31T07:48:02.214Z,36.50
2019-03-31T07:50:31.669Z,34.10
2019-03-31T07:53:00.962Z,35.85
2019-03-31T07:55:31.857Z,35.10
2019-03-31T07:58:01.139Z,34.38
2019-03-31T08:00:30.440Z,33.35
2019-03-31T08:03:00.450Z,38.45
2019-03-31T08:05:34.814Z,39.08
2019-03-31T08:08:03.023Z,44.50
2019-03-31T08:10:32.412Z,41.98
2019-03-31T08:13:01.735Z,38.02
2019-03-31T08:15:30.997Z,35.08
2019-03-31T08:18:02.142Z,34.83
2019-03-31T08:22:59.972Z,31.10
2019-03-31T08:25:29.342Z,27.93
2019-03-31T08:27:58.669Z,27.15
2019-03-31T08:30:27.923Z,27.50
2019-03-31T08:32:57.280Z,26.05
2019-03-31T08:35:26.707Z,26.82
2019-03-31T08:37:56.141Z,24.90
2019-03-31T08:40:25.392Z,25.92
2019-03-31T08:42:54.654Z,24.98
2019-03-31T08:45:23.961Z,24.90
2019-03-31T08:47:53.248Z,23.73
2019-03-31T08:50:22.701Z,24.90
2019-03-31T08:52:51.942Z,23.98
2019-03-31T08:55:21.199Z,22.93
2019-03-31T08:57:50.551Z,21.82
2019-03-31T09:00:21.462Z,21.90
2019-03-31T09:02:50.983Z,19.92
2019-03-31T09:05:20.237Z,20.17
2019-03-31T09:07:49.479Z,20.27
2019-03-31T09:10:18.931Z,19.17
2019-03-31T09:12:48.955Z,19.12
2019-03-31T09:15:18.314Z,16.20
2019-03-31T09:17:47.753Z,17.85
2019-03-31T09:20:17.949Z,17.42
2019-03-31T09:22:47.271Z,17.15
2019-03-31T09:25:16.861Z,16.80
2019-03-31T09:27:46.359Z,16.20
2019-03-31T09:30:16.000Z,12.90
2019-03-31T09:32:45.451Z,15.85
2019-03-31T09:35:15.814Z,14.47
2019-03-31T09:37:45.138Z,13.58
2019-03-31T09:40:14.395Z,16.27
2019-03-31T09:42:43.820Z,16.85
2019-03-31T09:45:13.147Z,16.45
2019-03-31T09:47:42.877Z,15.65
2019-03-31T09:50:17.504Z,14.43
2019-03-31T09:52:47.094Z,14.78
2019-03-31T09:55:16.509Z,14.13
2019-03-31T09:57:46.112Z,13.65
2019-03-31T10:00:18.018Z,14.38
2019-03-31T10:02:47.465Z,14.33
2019-03-31T10:05:17.045Z,14.45
2019-03-31T10:07:46.443Z,13.90
2019-03-31T10:10:30.264Z,12.18
2019-03-31T10:12:59.868Z,12.35
2019-03-31T10:15:29.298Z,13.50
2019-03-31T10:17:58.773Z,14.50
2019-03-31T10:20:31.346Z,13.93
2019-03-31T10:22:59.437Z,13.57
2019-03-31T10:25:28.683Z,15.35
2019-03-31T10:27:57.857Z,14.85
2019-03-31T10:30:38.147Z,14.03
2019-03-31T10:33:08.779Z,13.95
2019-03-31T10:35:38.051Z,14.43
2019-03-31T10:38:07.522Z,13.93
2019-03-31T10:40:36.871Z,14.18
2019-03-31T10:43:06.400Z,13.85
2019-03-31T10:45:36.128Z,14.50
2019-03-31T10:48:19.250Z,13.48
2019-03-31T10:50:36.690Z,13.30
2019-03-31T10:53:06.134Z,15.53
2019-03-31T10:55:35.528Z,14.70
2019-03-31T10:58:04.820Z,13.10
2019-03-31T11:00:38.185Z,14.55
2019-03-31T11:03:07.617Z,14.63
2019-03-31T11:05:37.898Z,15.18
2019-03-31T11:08:13.120Z,14.05
2019-03-31T11:10:42.413Z,15.85
2019-03-31T11:13:11.699Z,15.63
2019-03-31T11:15:40.914Z,14.63
2019-03-31T11:18:10.096Z,15.63
2019-03-31T11:20:39.326Z,17.20
2019-03-31T11:23:22.140Z,16.77
2019-03-31T11:25:51.367Z,15.93
2019-03-31T11:28:20.556Z,15.45
2019-03-31T11:30:49.864Z,18.07
2019-03-31T11:33:19.173Z,16.70
2019-03-31T11:35:49.258Z,16.05
2019-03-31T11:38:18.439Z,16.87
2019-03-31T11:40:47.635Z,15.70
2019-03-31T11:43:16.818Z,16.32
2019-03-31T11:45:46.043Z,16.30
2019-03-31T11:48:15.274Z,15.25
2019-03-31T11:50:44.489Z,15.30
2019-03-31T11:53:13.698Z,16.25
2019-03-31T11:55:42.903Z,15.95
2019-03-31T11:58:12.113Z,17.30
2019-03-31T12:00:42.976Z,17.55
2019-03-31T12:03:12.302Z,17.30
2019-03-31T12:05:41.475Z,15.55
2019-03-31T12:08:10.683Z,16.37
2019-03-31T12:10:39.860Z,16.10
2019-03-31T12:13:09.147Z,17.12
2019-03-31T12:15:38.388Z,15.72
2019-03-31T12:18:07.571Z,17.27
2019-03-31T12:20:36.780Z,16.85
2019-03-31T12:23:05.999Z,17.70
2019-03-31T12:25:35.178Z,18.85
2019-03-31T12:28:04.415Z,19.00
2019-03-31T12:30:33.654Z,18.42
2019-03-31T12:33:02.899Z,18.15
2019-03-31T12:35:32.072Z,18.42
2019-03-31T12:38:01.280Z,16.50
2019-03-31T12:40:31.981Z,18.80
2019-03-31T12:43:01.188Z,18.20
2019-03-31T12:45:30.434Z,18.67
2019-03-31T12:48:01.455Z,18.85
2019-03-31T12:50:30.807Z,18.50
2019-03-31T12:52:59.984Z,19.77
2019-03-31T12:55:29.206Z,21.48
2019-03-31T12:57:58.547Z,20.95
2019-03-31T13:00:27.810Z,20.70
2019-03-31T13:02:56.991Z,21.30
2019-03-31T13:05:26.263Z,22.00
2019-03-31T13:07:56.827Z,20.75
2019-03-31T13:10:26.271Z,23.40
2019-03-31T13:12:55.502Z,24.23
2019-03-31T13:15:24.718Z,25.20
2019-03-31T13:17:53.898Z,24.20
2019-03-31T13:20:23.280Z,24.82
2019-03-31T13:22:52.459Z,23.77
2019-03-31T13:25:21.642Z,27.32
2019-03-31T13:27:50.840Z,25.72
2019-03-31T13:30:21.945Z,29.37
2019-03-31T13:32:51.198Z,28.27
2019-03-31T13:35:20.474Z,29.07
2019-03-31T13:37:49.721Z,30.02
2019-03-31T13:40:19.073Z,28.15
2019-03-31T13:42:48.333Z,25.80
2019-03-31T13:45:17.511Z,26.00
2019-03-31T13:47:46.939Z,24.72
2019-03-31T13:50:16.186Z,26.05
2019-03-31T13:52:45.432Z,25.55
2019-03-31T13:55:14.638Z,25.08
2019-03-31T13:57:44.762Z,25.72
2019-03-31T14:00:25.139Z,23.18
2019-03-31T14:02:47.264Z,24.05
2019-03-31T14:05:16.584Z,21.95
2019-03-31T14:07:46.155Z,24.80
2019-03-31T14:10:15.338Z,23.42
2019-03-31T14:12:44.640Z,24.27
2019-03-31T14:15:19.432Z,25.88
2019-03-31T14:17:44.945Z,25.92
2019-03-31T14:20:14.159Z,24.27
2019-03-31T14:22:43.396Z,26.62
2019-03-31T14:25:12.791Z,25.35
2019-03-31T14:27:41.974Z,24.65
2019-03-31T14:30:11.247Z,25.85
2019-03-31T14:32:40.455Z,24.80
2019-03-31T14:35:09.721Z,26.50
2019-03-31T14:37:39.008Z,22.02
2019-03-31T14:40:08.306Z,22.93
2019-03-31T14:42:37.477Z,21.17
2019-03-31T14:45:06.942Z,19.67
2019-03-31T14:47:36.166Z,19.32
2019-03-31T14:50:06.388Z,18.95
2019-03-31T14:52:35.565Z,18.77
2019-03-31T14:55:05.625Z,17.07
2019-03-31T14:57:34.818Z,16.48
2019-03-31T15:00:14.488Z,15.68
2019-03-31T15:02:37.377Z,14.73
2019-03-31T15:05:06.628Z,14.65
2019-03-31T15:07:35.879Z,13.90
2019-03-31T15:10:06.270Z,15.35
2019-03-31T15:12:35.585Z,13.43
2019-03-31T15:15:06.443Z,15.55
2019-03-31T15:17:35.622Z,13.00
2019-03-31T15:20:05.565Z,13.80
2019-03-31T15:22:34.856Z,13.83
2019-03-31T15:25:07.768Z,13.32
2019-03-31T15:27:36.961Z,11.55
2019-03-31T15:30:06.811Z,11.68
2019-03-31T15:32:36.111Z,12.75
2019-03-31T15:35:06.330Z,11.73
2019-03-31T15:37:35.589Z,11.53
2019-03-31T15:40:06.937Z,14.60
2019-03-31T15:42:36.234Z,56.90
2019-03-31T15:45:06.189Z,10.72
2019-03-31T15:47:35.439Z,11.95
2019-03-31T15:50:05.687Z,14.93
2019-03-31T15:52:34.953Z,13.65
2019-03-31T15:55:06.323Z,11.48
2019-03-31T15:57:35.732Z,11.50
2019-03-31T16:00:07.186Z,9.68
2019-03-31T16:02:36.536Z,10.67
2019-03-31T16:05:08.571Z,11.15
2019-03-31T16:07:37.818Z,9.15
2019-03-31T16:10:07.088Z,8.80
2019-03-31T16:12:36.294Z,8.03
2019-03-31T16:15:05.843Z,7.95
2019-03-31T16:17:35.233Z,8.00
2019-03-31T16:20:05.272Z,7.30
2019-03-31T16:22:34.449Z,8.73
2019-03-31T16:25:15.078Z,7.58
2019-03-31T16:27:44.292Z,8.88
2019-03-31T16:30:13.542Z,8.55
2019-03-31T16:32:42.763Z,8.45
2019-03-31T16:35:11.996Z,8.43
2019-03-31T16:37:41.168Z,10.85
2019-03-31T16:40:10.352Z,7.70
2019-03-31T16:42:39.605Z,7.67
2019-03-31T16:45:08.818Z,7.55
2019-03-31T16:47:38.055Z,7.22
2019-03-31T16:50:07.400Z,8.25
2019-03-31T16:52:36.956Z,8.08
2019-03-31T16:55:06.298Z,7.22
2019-03-31T16:57:36.748Z,8.93
2019-03-31T17:00:07.353Z,8.03
2019-03-31T17:02:36.612Z,7.30
2019-03-31T17:05:20.645Z,7.83
2019-03-31T17:07:36.929Z,8.58
2019-03-31T17:10:08.897Z,7.87
2019-03-31T17:12:39.878Z,7.30
2019-03-31T17:15:09.049Z,6.85
2019-03-31T17:17:38.347Z,7.95
2019-03-31T17:20:07.587Z,7.45
2019-03-31T17:22:36.838Z,6.20
2019-03-31T17:25:06.131Z,7.83
2019-03-31T17:27:35.298Z,7.58
2019-03-31T17:30:05.765Z,7.30
2019-03-31T17:32:34.940Z,13.08
2019-03-31T17:35:04.352Z,15.55
2019-03-31T17:37:33.512Z,7.17
2019-03-31T17:40:06.295Z,9.05
2019-03-31T17:42:33.960Z,8.68
2019-03-31T17:45:03.522Z,6.83
2019-03-31T17:47:32.876Z,7.72
2019-03-31T17:50:02.075Z,7.25
2019-03-31T17:52:32.146Z,6.83
2019-03-31T17:55:02.767Z,7.78
2019-03-31T17:57:32.010Z,7.72
2019-03-31T18:00:01.269Z,19.30
2019-03-31T18:02:30.489Z,69.65
2019-03-31T18:05:02.006Z,46.15
2019-03-31T18:07:31.422Z,22.47
2019-03-31T18:10:00.686Z,26.48
2019-03-31T18:12:29.904Z,16.25
2019-03-31T18:14:59.092Z,14.73
2019-03-31T18:17:28.274Z,10.53
2019-03-31T18:19:57.520Z,11.70
2019-03-31T18:22:26.707Z,10.03
2019-03-31T18:24:55.978Z,10.90
2019-03-31T18:27:25.198Z,10.30
2019-03-31T18:29:55.102Z,7.85
2019-03-31T18:32:24.340Z,7.08
2019-03-31T18:34:53.569Z,6.65
2019-03-31T18:37:22.869Z,6.25
2019-03-31T18:39:52.123Z,7.35
2019-03-31T18:42:21.299Z,11.35
2019-03-31T18:44:51.573Z,12.63
2019-03-31T18:47:22.532Z,12.98
2019-03-31T18:49:51.714Z,9.28
2019-03-31T18:52:21.021Z,7.50
2019-03-31T18:54:54.922Z,7.70
2019-03-31T18:57:25.781Z,8.53
2019-03-31T19:00:14.520Z,8.00
2019-03-31T19:02:45.391Z,8.95
2019-03-31T19:05:32.582Z,7.47
2019-03-31T19:08:18.436Z,8.80
2019-03-31T19:10:49.993Z,7.05
2019-03-31T19:13:23.621Z,7.50
2019-03-31T19:16:00.253Z,7.47
2019-03-31T19:18:31.561Z,7.53
2019-03-31T19:21:17.382Z,6.78
2019-03-31T19:23:54.259Z,7.33
2019-03-31T19:26:31.398Z,8.20
2019-03-31T19:29:05.392Z,6.70
2019-03-31T19:31:48.244Z,8.25
2019-03-31T19:34:24.890Z,10.85
2019-03-31T19:37:08.141Z,6.85
2019-03-31T19:39:38.935Z,5.60
2019-03-31T19:42:28.252Z,6.42
2019-03-31T19:45:00.707Z,4.95
2019-03-31T19:50:35.905Z,6.08
2019-03-31T19:53:06.790Z,5.45
2019-03-31T19:55:46.548Z,6.90
2019-03-31T19:58:20.112Z,9.45
2019-03-31T20:00:56.941Z,10.63
2019-03-31T20:03:27.813Z,6.00
2019-03-31T20:05:58.661Z,10.72
2019-03-31T20:08:32.466Z,10.53
2019-03-31T20:11:06.183Z,13.60
2019-03-31T20:13:37.114Z,7.62
2019-03-31T20:16:20.073Z,15.75
2019-03-31T20:19:07.032Z,11.88
2019-03-31T20:21:56.447Z,9.40
2019-03-31T20:24:43.612Z,18.42
2019-03-31T20:27:31.868Z,12.13
2019-03-31T20:30:05.097Z,17.02
2019-03-31T20:32:36.057Z,17.80
2019-03-31T20:35:11.521Z,10.00
2019-03-31T20:37:46.167Z,6.83
2019-03-31T20:40:24.135Z,6.40
2019-03-31T20:42:58.881Z,6.58
2019-03-31T20:45:29.286Z,8.73
2019-03-31T20:47:59.633Z,9.18
2019-03-31T20:50:30.234Z,4.47
2019-03-31T20:53:00.563Z,4.17
2019-03-31T20:55:32.555Z,8.83
2019-03-31T20:58:02.936Z,12.50
2019-03-31T21:00:33.519Z,7.22
2019-03-31T21:03:02.789Z,11.22
2019-03-31T21:05:32.032Z,11.18
2019-03-31T21:08:01.216Z,20.25
2019-03-31T21:10:30.388Z,6.58
2019-03-31T21:12:59.626Z,6.58
2019-03-31T21:15:28.809Z,16.87
2019-03-31T21:17:57.990Z,3.90
2019-03-31T21:20:27.187Z,2.22
2019-03-31T21:22:56.445Z,3.37
2019-03-31T21:25:25.813Z,4.60
2019-03-31T21:27:54.986Z,5.22
2019-03-31T21:30:24.256Z,9.08
2019-03-31T21:32:53.504Z,3.25
2019-03-31T21:35:22.742Z,5.50
2019-03-31T21:37:52.004Z,3.15
2019-03-31T21:40:21.298Z,2.50
2019-03-31T21:42:50.477Z,3.87
2019-03-31T21:45:19.656Z,7.35
2019-03-31T21:47:49.007Z,4.53
2019-03-31T21:50:18.241Z,3.60
2019-03-31T21:52:47.524Z,4.70
2019-03-31T21:55:16.703Z,3.77
2019-03-31T21:57:45.905Z,4.87
2019-03-31T22:00:16.463Z,4.92
2019-03-31T22:02:45.743Z,6.67
2019-03-31T22:05:14.945Z,6.33
2019-03-31T22:07:44.178Z,9.35
2019-03-31T22:10:13.509Z,6.08
2019-03-31T22:12:42.679Z,5.33
2019-03-31T22:15:12.791Z,3.60
2019-03-31T22:17:41.981Z,3.22
2019-03-31T22:20:11.225Z,3.20
2019-03-31T22:22:40.444Z,3.40
2019-03-31T22:25:09.614Z,3.22
2019-03-31T22:27:38.952Z,2.60
2019-03-31T22:30:08.305Z,2.12
2019-03-31T22:32:37.545Z,2.62
2019-03-31T22:35:06.789Z,2.05
2019-03-31T22:37:36.078Z,2.10
2019-03-31T22:40:06.227Z,2.20
2019-03-31T22:42:35.466Z,2.33
2019-03-31T22:45:05.706Z,2.10
2019-03-31T22:47:34.954Z,2.30
2019-03-31T22:50:04.962Z,2.08
2019-03-31T22:52:34.229Z,2.00
2019-03-31T22:55:03.998Z,1.90
2019-03-31T22:57:33.199Z,2.17
2019-03-31T23:00:02.452Z,2.20
2019-03-31T23:02:31.655Z,3.27
2019-03-31T23:05:00.898Z,2.20
2019-03-31T23:07:30.145Z,2.22
2019-03-31T23:09:59.397Z,2.52
2019-03-31T23:12:28.667Z,2.55
2019-03-31T23:14:57.843Z,2.50
2019-03-31T23:17:27.130Z,3.20
2019-03-31T23:19:56.408Z,2.92
2019-03-31T23:22:27.703Z,2.60
2019-03-31T23:24:56.602Z,2.52
2019-03-31T23:27:25.782Z,2.60
2019-03-31T23:29:55.003Z,2.55
2019-03-31T23:32:24.254Z,4.28
2019-03-31T23:34:53.453Z,3.42
2019-03-31T23:37:22.749Z,5.37
2019-03-31T23:39:51.972Z,9.48
2019-03-31T23:42:21.213Z,13.20
2019-03-31T23:44:50.449Z,12.93
2019-03-31T23:47:19.761Z,11.85
2019-03-31T23:49:49.015Z,11.28
2019-03-31T23:52:18.217Z,10.93
2019-03-31T23:54:47.413Z,11.85
2019-03-31T23:57:16.659Z,11.33
2019-03-31T23:59:45.914Z,10.30
